createdAt,value
2022-09-07T00:03:45.524Z,17.3
2022-09-07T00:04:55.718Z,17.3
2022-09-07T00:09:39.579Z,17.0
2022-09-07T00:13:51.356Z,16.8
2022-09-07T00:18:51.386Z,16.6
2022-09-07T00:23:51.477Z,16.5
2022-09-07T00:28:35.567Z,16.5
2022-09-07T00:33:35.578Z,16.4
2022-09-07T00:40:58.780Z,16.5
2022-09-07T00:44:04.584Z,16.5
2022-09-07T00:46:32.423Z,16.4
2022-09-07T00:51:32.411Z,16.4
2022-09-07T00:56:32.411Z,16.4
2022-09-07T01:01:32.512Z,16.3
2022-09-07T01:06:32.401Z,16.1
2022-09-07T01:11:32.399Z,16.0
2022-09-07T01:16:32.408Z,16.0
2022-09-07T01:21:32.529Z,16.0
2022-09-07T01:26:32.541Z,16.0
2022-09-07T01:31:32.485Z,16.0
2022-09-07T01:36:32.423Z,15.9
2022-09-07T01:41:32.432Z,16.0
2022-09-07T01:46:32.564Z,16.0
2022-09-07T01:51:32.452Z,16.0
2022-09-07T01:56:32.451Z,16.1
2022-09-07T02:01:32.491Z,16.1
2022-09-07T02:06:32.444Z,16.1
2022-09-07T02:11:32.441Z,16.2
2022-09-07T02:16:32.438Z,16.2
2022-09-07T02:21:32.470Z,16.3
2022-09-07T02:26:32.571Z,16.3
2022-09-07T02:31:32.474Z,16.4
2022-09-07T02:36:32.454Z,16.4
2022-09-07T02:41:32.463Z,16.4
2022-09-07T02:46:32.503Z,16.4
2022-09-07T02:51:32.485Z,16.5
2022-09-07T02:56:32.484Z,16.4
2022-09-07T03:01:32.571Z,16.4
2022-09-07T03:06:32.472Z,16.4
2022-09-07T03:11:32.482Z,16.4
2022-09-07T03:16:32.478Z,16.4
2022-09-07T03:21:32.603Z,16.4
2022-09-07T03:26:32.592Z,16.4
2022-09-07T03:31:32.489Z,16.3
2022-09-07T03:36:32.494Z,16.3
2022-09-07T03:41:32.489Z,16.2
2022-09-07T03:46:32.569Z,16.2
2022-09-07T03:51:32.517Z,16.2
2022-09-07T03:56:32.513Z,16.2
2022-09-07T04:01:32.609Z,16.2
2022-09-07T04:06:32.513Z,16.2
2022-09-07T04:11:32.510Z,16.1
2022-09-07T04:16:32.592Z,16.1
2022-09-07T04:21:32.532Z,16.0
2022-09-07T04:26:32.627Z,16.0
2022-09-07T04:31:32.523Z,16.0
2022-09-07T04:36:32.524Z,16.1
2022-09-07T04:41:32.547Z,16.2
2022-09-07T04:46:32.533Z,16.2
2022-09-07T04:51:32.563Z,16.3
2022-09-07T04:56:32.552Z,16.4
2022-09-07T05:01:32.579Z,16.4
2022-09-07T05:06:32.547Z,16.5
2022-09-07T05:11:32.547Z,16.5
2022-09-07T05:16:32.633Z,16.6
2022-09-07T05:21:32.577Z,16.6
2022-09-07T05:26:32.571Z,16.6
2022-09-07T05:31:32.562Z,16.7
2022-09-07T05:36:32.572Z,16.7
2022-09-07T05:41:32.571Z,16.8
2022-09-07T05:46:32.569Z,16.8
2022-09-07T05:51:32.601Z,16.8
2022-09-07T05:56:32.591Z,16.9
2022-09-07T06:01:32.581Z,16.9
2022-09-07T06:06:32.583Z,17.0
2022-09-07T06:11:32.606Z,17.2
2022-09-07T06:16:32.652Z,17.2
2022-09-07T06:21:32.630Z,17.1
2022-09-07T06:26:32.608Z,17.1
2022-09-07T06:31:32.765Z,17.1
2022-09-07T06:36:32.602Z,17.1
2022-09-07T06:41:59.720Z,17.1
2022-09-07T06:51:32.630Z,17.3
2022-09-07T06:56:32.633Z,17.4
2022-09-07T07:01:32.641Z,17.5
2022-09-07T07:06:32.618Z,17.7
2022-09-07T07:11:32.622Z,17.7
2022-09-07T07:16:32.877Z,17.6
2022-09-07T07:21:48.600Z,17.6
2022-09-07T07:26:32.739Z,17.7
2022-09-07T07:31:32.631Z,17.8
2022-09-07T07:36:32.637Z,17.9
2022-09-07T07:41:58.730Z,18.0
2022-09-07T07:46:32.704Z,18.0
2022-09-07T07:52:49.853Z,18.2
2022-09-07T07:56:32.659Z,18.5
2022-09-07T08:01:32.730Z,18.6
2022-09-07T08:06:32.654Z,18.6
2022-09-07T08:11:32.658Z,18.7
2022-09-07T08:16:32.717Z,18.7
2022-09-07T08:21:32.786Z,18.5
2022-09-07T08:26:32.772Z,18.5
2022-09-07T08:31:32.722Z,18.5
2022-09-07T08:36:32.680Z,18.7
2022-09-07T08:41:32.673Z,18.8
2022-09-07T08:46:32.726Z,18.7
2022-09-07T08:51:32.712Z,19.0
2022-09-07T08:56:33.960Z,19.3
2022-09-07T09:01:33.279Z,19.4
2022-09-07T09:06:32.735Z,19.5
2022-09-07T09:11:32.704Z,19.5
2022-09-07T09:16:32.749Z,19.6
2022-09-07T09:21:32.712Z,19.8
2022-09-07T09:26:32.716Z,19.7
2022-09-07T09:31:32.769Z,19.5
2022-09-07T09:36:32.713Z,19.6
2022-09-07T09:41:32.719Z,19.6
2022-09-07T09:46:32.789Z,19.8
2022-09-07T09:56:32.733Z,20.1
2022-09-07T10:01:33.614Z,20.2
2022-09-07T10:06:32.736Z,20.6
2022-09-07T10:16:32.803Z,20.8
2022-09-07T10:21:32.758Z,21.0
2022-09-07T10:26:32.850Z,21.2
2022-09-07T10:31:32.792Z,21.2
2022-09-07T10:36:32.748Z,21.7
2022-09-07T10:41:32.746Z,21.5
2022-09-07T10:46:57.755Z,21.6
2022-09-07T10:51:32.793Z,21.6
2022-09-07T10:56:32.773Z,21.6
2022-09-07T11:01:32.836Z,21.5
2022-09-07T11:06:32.770Z,21.8
2022-09-07T11:16:51.603Z,22.7
2022-09-07T11:21:56.891Z,22.8
2022-09-07T11:26:32.785Z,22.9
2022-09-07T11:31:32.859Z,23.1
2022-09-07T11:36:32.787Z,23.2
2022-09-07T11:41:32.787Z,23.5
2022-09-07T11:46:32.879Z,23.1
2022-09-07T11:51:32.820Z,22.9
2022-09-07T11:56:36.202Z,23.0
2022-09-07T12:01:32.803Z,23.0
2022-09-07T12:06:32.800Z,23.1
2022-09-07T12:11:32.806Z,23.2
2022-09-07T12:16:32.813Z,23.2
2022-09-07T12:21:32.838Z,23.1
2022-09-07T12:24:35.577Z,23.1
2022-09-07T12:26:32.829Z,23.2
2022-09-07T12:31:39.093Z,23.4
2022-09-07T12:36:32.824Z,23.3
2022-09-07T12:41:32.821Z,23.3
2022-09-07T12:46:34.729Z,23.6
2022-09-07T12:52:06.819Z,24.2
2022-09-07T12:56:32.845Z,24.8
2022-09-07T13:01:32.981Z,24.7
2022-09-07T13:07:02.171Z,24.2
2022-09-07T13:11:32.845Z,24.3
2022-09-07T13:17:15.891Z,24.6
2022-09-07T13:21:32.879Z,24.5
2022-09-07T13:26:32.862Z,24.2
2022-09-07T13:31:32.858Z,24.2
2022-09-07T13:36:32.856Z,24.3
2022-09-07T13:41:32.862Z,24.2
2022-09-07T13:46:32.906Z,24.1
2022-09-07T13:51:32.881Z,24.1
2022-09-07T13:56:32.894Z,24.2
2022-09-07T14:01:32.944Z,23.9
2022-09-07T14:06:32.881Z,23.5
2022-09-07T14:11:32.878Z,23.7
2022-09-07T14:16:32.937Z,23.8
2022-09-07T14:21:32.916Z,23.8
2022-09-07T14:26:32.906Z,23.8
2022-09-07T14:31:32.896Z,24.1
2022-09-07T14:36:44.847Z,24.2
2022-09-07T14:41:32.902Z,24.2
2022-09-07T14:46:33.313Z,24.2
2022-09-07T14:51:36.463Z,24.3
2022-09-07T14:56:32.922Z,24.0
2022-09-07T15:01:39.817Z,24.0
2022-09-07T15:07:01.345Z,23.9
2022-09-07T15:11:33.371Z,23.9
2022-09-07T15:16:32.977Z,23.6
2022-09-07T15:21:32.945Z,23.5
2022-09-07T15:27:02.473Z,23.4
2022-09-07T15:31:42.560Z,23.3
2022-09-07T15:36:32.936Z,23.3
2022-09-07T15:41:32.941Z,23.3
2022-09-07T15:46:32.984Z,23.5
2022-09-07T15:56:32.956Z,23.4
2022-09-07T16:01:53.067Z,23.4
2022-09-07T16:06:35.784Z,23.4
2022-09-07T16:11:35.241Z,23.4
2022-09-07T16:21:32.987Z,23.2
2022-09-07T16:26:32.974Z,23.3
2022-09-07T16:31:33.396Z,23.4
2022-09-07T16:36:32.970Z,23.3
2022-09-07T16:41:32.978Z,23.0
2022-09-07T16:46:32.999Z,22.7
2022-09-07T16:51:33.008Z,22.5
2022-09-07T16:56:38.324Z,22.5
2022-09-07T17:01:33.070Z,22.3
2022-09-07T17:06:32.989Z,22.1
2022-09-07T17:11:32.999Z,22.0
2022-09-07T17:16:33.093Z,21.9
2022-09-07T17:21:33.477Z,21.8
2022-09-07T17:25:48.634Z,21.8
2022-09-07T17:26:33.014Z,21.6
2022-09-07T17:36:33.323Z,21.4
2022-09-07T17:41:33.022Z,21.3
2022-09-07T17:46:33.019Z,21.1
2022-09-07T17:51:33.033Z,21.0
2022-09-07T17:56:33.044Z,20.9
2022-09-07T18:01:33.078Z,20.8
2022-09-07T18:06:33.030Z,21.1
2022-09-07T18:11:48.721Z,21.1
2022-09-07T18:16:33.090Z,20.8
2022-09-07T18:21:33.067Z,20.7
2022-09-07T18:26:33.059Z,20.8
2022-09-07T18:31:33.082Z,20.6
2022-09-07T18:36:33.057Z,20.3
2022-09-07T18:41:33.061Z,20.1
2022-09-07T18:46:33.135Z,20.1
2022-09-07T18:52:51.562Z,19.9
2022-09-07T18:56:33.073Z,19.7
2022-09-07T19:01:33.177Z,19.6
2022-09-07T19:06:33.063Z,19.4
2022-09-07T19:11:33.069Z,19.3
2022-09-07T19:16:33.174Z,19.2
2022-09-07T19:21:33.104Z,19.1
2022-09-07T19:26:33.088Z,19.0
2022-09-07T19:31:33.168Z,19.0
2022-09-07T19:36:33.084Z,18.8
2022-09-07T19:41:33.089Z,18.7
2022-09-07T19:46:33.165Z,18.7
2022-09-07T19:51:36.733Z,18.6
2022-09-07T19:56:33.132Z,18.7
2022-09-07T20:01:33.101Z,18.7
2022-09-07T20:06:33.108Z,18.7
2022-09-07T20:11:33.117Z,18.5
2022-09-07T20:16:33.207Z,18.4
2022-09-07T20:21:33.117Z,18.4
2022-09-07T20:26:33.159Z,18.3
2022-09-07T20:31:33.150Z,18.2
2022-09-07T20:36:33.119Z,18.2
2022-09-07T20:41:33.127Z,18.1
2022-09-07T20:46:33.165Z,18.1
2022-09-07T20:51:33.130Z,18.0
2022-09-07T20:56:33.167Z,17.9
2022-09-07T21:01:33.218Z,17.9
2022-09-07T21:06:33.145Z,17.8
2022-09-07T21:11:33.169Z,17.7
2022-09-07T21:16:33.267Z,17.6
2022-09-07T21:21:37.755Z,17.5
2022-09-07T21:26:33.180Z,17.4
2022-09-07T21:31:33.192Z,17.4
2022-09-07T21:36:33.163Z,17.3
2022-09-07T21:41:33.173Z,17.2
2022-09-07T21:46:33.233Z,17.2
2022-09-07T21:51:33.169Z,17.3
2022-09-07T21:56:33.221Z,17.2
2022-09-07T22:01:33.267Z,17.2
2022-09-07T22:06:33.188Z,17.3
2022-09-07T22:11:33.188Z,17.3
2022-09-07T22:16:33.256Z,17.4
2022-09-07T22:21:33.193Z,17.5
2022-09-07T22:26:33.225Z,17.5
2022-09-07T22:31:33.355Z,17.4
2022-09-07T22:36:33.197Z,17.3
2022-09-07T22:41:33.202Z,17.2
2022-09-07T22:46:33.263Z,17.1
2022-09-07T22:51:33.208Z,17.2
2022-09-07T22:56:33.242Z,17.2
2022-09-07T23:01:33.215Z,17.2
2022-09-07T23:06:33.219Z,17.2
2022-09-07T23:11:33.214Z,17.2
2022-09-07T23:16:33.294Z,17.2
2022-09-07T23:21:33.226Z,17.2
2022-09-07T23:26:33.268Z,17.2
2022-09-07T23:31:33.301Z,17.3
2022-09-07T23:36:33.230Z,17.3
2022-09-07T23:41:33.233Z,17.2
2022-09-07T23:46:33.347Z,17.2
2022-09-07T23:51:33.245Z,17.3
2022-09-07T23:56:33.475Z,17.3
